Time;durP1;ratioP1;P1;durP2;ratioP2;P2;SDS_P1;SDS_P2;PMS_P1;PMS_P2;Temp;Humidity;BMP_temperature;BMP_pressure;BME280_temperature;BME280_humidity;BME280_pressure;Samples;Min_cycle;Max_cycle;Signal;HPM_P1;HPM_P2
2022/10/09 00:05:17;;;;;;;0.00;0.00;;;;;;;-145.16;100.00;79540.04;645172;217;32647;-72
2022/10/09 00:11:35;;;;;;;0.00;0.00;;;;;;;-145.16;100.00;79513.84;645182;218;32378;-72
2022/10/09 00:17:53;;;;;;;0.00;0.00;;;;;;;-145.16;100.00;79617.60;653701;217;32635;-72
2022/10/09 00:24:12;;;;;;;0.00;0.00;;;;;;;-145.16;100.00;79612.56;653671;218;32387;-72
2022/10/09 00:30:30;;;;;;;0.00;0.00;;;;;;;-145.16;100.00;79641.78;653691;217;32368;-72
2022/10/09 00:36:48;;;;;;;0.00;0.00;;;;;;;-145.16;100.00;79655.88;653696;217;32359;-72
2022/10/09 00:43:06;;;;;;;0.00;0.00;;;;;;;-145.16;100.00;79656.89;645182;217;32658;-72
2022/10/09 00:49:28;;;;;;;0.00;0.00;;;;;;;-145.16;100.00;79632.72;653692;217;32364;-72
2022/10/09 00:55:46;;;;;;;0.00;0.00;;;;;;;-145.16;100.00;79664.95;653691;218;32436;-72
2022/10/09 01:02:05;;;;;;;0.00;0.00;;;;;;;-145.16;100.00;79585.37;645168;218;33340;-72
2022/10/09 01:08:23;;;;;;;0.00;0.00;;;;;;;-145.16;100.00;79626.67;645170;217;32382;-71
2022/10/09 01:14:44;;;;;;;0.00;0.00;;;;;;;-145.16;100.00;79607.53;645175;217;32348;-72
2022/10/09 01:21:04;;;;;;;0.00;0.00;;;;;;;-145.16;100.00;79673.01;645181;217;32377;-72
2022/10/09 01:27:22;;;;;;;0.00;0.00;;;;;;;-145.16;100.00;79649.84;645187;217;32347;-72
2022/10/09 01:33:40;;;;;;;1.90;1.50;;;;;;;-145.16;100.00;79631.70;645170;217;33392;-72
2022/10/09 01:39:59;;;;;;;0.00;0.00;;;;;;;-145.16;100.00;79651.86;645179;217;32382;-72
2022/10/09 01:46:18;;;;;;;0.00;0.00;;;;;;;-145.16;100.00;79648.83;645171;218;32366;-72
2022/10/09 01:52:41;;;;;;;0.00;0.00;;;;;;;-145.16;100.00;79628.69;653671;214;32374;-72
2022/10/09 01:59:00;;;;;;;0.00;0.00;;;;;;;-145.16;100.00;79647.83;653671;217;32374;-72
2022/10/09 02:05:18;;;;;;;0.10;0.10;;;;;;;-145.16;100.00;79616.59;645196;218;32671;-72
2022/10/09 02:11:36;;;;;;;0.10;0.10;;;;;;;-145.16;100.00;79586.38;653682;217;32444;-72
2022/10/09 02:17:54;;;;;;;0.00;0.00;;;;;;;-145.16;100.00;79575.30;645181;218;33362;-72
2022/10/09 02:24:12;;;;;;;0.20;0.20;;;;;;;-145.16;100.00;79581.34;645184;217;33363;-72
2022/10/09 02:30:31;;;;;;;0.10;0.10;;;;;;;-145.16;100.00;79581.34;645173;218;33350;-72
2022/10/09 02:36:51;;;;;;;0.00;0.00;;;;;;;-145.16;100.00;79580.33;653635;218;33344;-72
2022/10/09 02:43:09;;;;;;;0.00;0.00;;;;;;;-145.16;100.00;79588.39;645173;217;32370;-72
2022/10/09 02:49:27;;;;;;;0.00;0.00;;;;;;;-145.16;100.00;79600.48;653664;217;32368;-72
2022/10/09 02:55:45;;;;;;;0.00;0.00;;;;;;;-145.16;100.00;79600.48;653693;217;32372;-72
2022/10/09 03:02:05;;;;;;;0.10;0.10;;;;;;;-145.16;100.00;79619.62;643812;217;32421;-72
2022/10/09 03:08:23;;;;;;;0.00;0.00;;;;;;;-145.16;100.00;79603.50;645174;217;32356;-72
2022/10/09 03:14:41;;;;;;;0.00;0.00;;;;;;;-145.16;100.00;79626.67;645187;217;33392;-72
2022/10/09 03:21:01;;;;;;;0.10;0.10;;;;;;;-145.16;100.00;79646.82;653641;217;32424;-72
2022/10/09 03:27:20;;;;;;;0.00;0.00;;;;;;;-145.16;100.00;79617.60;645173;217;32383;-72
2022/10/09 03:33:40;;;;;;;0.00;0.00;;;;;;;-145.16;100.00;79606.52;645065;217;32377;-72
2022/10/09 03:40:00;;;;;;;0.70;0.70;;;;;;;-145.16;100.00;79598.47;645026;217;33385;-72
2022/10/09 03:46:18;;;;;;;0.10;0.10;;;;;;;-145.16;100.00;79613.58;653684;217;32372;-72
2022/10/09 03:52:37;;;;;;;0.00;0.00;;;;;;;-145.16;100.00;79613.58;653696;218;32356;-72
2022/10/09 03:58:55;;;;;;;0.10;0.10;;;;;;;-145.16;100.00;79616.59;653679;217;33373;-72
2022/10/09 04:05:13;;;;;;;0.60;0.60;;;;;;;-145.16;100.00;79626.67;645163;217;32449;-72
2022/10/09 04:11:32;;;;;;;0.10;0.10;;;;;;;-145.16;100.00;79623.65;645191;218;32396;-72
2022/10/09 04:17:50;;;;;;;0.20;0.20;;;;;;;-145.16;100.00;79617.60;645170;217;32383;-72
2022/10/09 04:24:08;;;;;;;0.20;0.20;;;;;;;-145.16;100.00;79609.55;645177;217;32371;-72
2022/10/09 04:30:26;;;;;;;0.10;0.10;;;;;;;-145.16;100.00;79612.56;645186;218;33367;-72
2022/10/09 04:36:44;;;;;;;0.00;0.00;;;;;;;-145.16;100.00;79599.47;632292;221;32558;-74
2022/10/09 04:43:02;;;;;;;0.50;0.50;;;;;;;-145.16;100.00;79610.55;645173;217;32392;-74
2022/10/09 04:49:21;;;;;;;0.10;0.10;;;;;;;-145.16;100.00;79610.55;645174;217;32347;-73
2022/10/09 04:55:39;;;;;;;0.00;0.00;;;;;;;-145.16;100.00;79618.61;645162;217;32321;-74
2022/10/09 05:01:57;;;;;;;0.00;0.00;;;;;;;-145.16;100.00;79620.63;645169;217;32380;-72
2022/10/09 05:08:16;;;;;;;0.00;0.00;;;;;;;-145.16;100.00;79623.65;645168;217;32666;-74
2022/10/09 05:14:34;;;;;;;0.07;0.07;;;;;;;-145.16;100.00;79680.06;645154;217;32370;-73
2022/10/09 05:20:53;;;;;;;0.00;0.00;;;;;;;-145.16;100.00;79653.87;653666;217;33363;-73
2022/10/09 05:27:11;;;;;;;0.00;0.00;;;;;;;-145.16;100.00;79630.70;645151;217;32646;-74
2022/10/09 05:33:29;;;;;;;0.00;0.00;;;;;;;-145.16;100.00;79632.72;653664;217;33333;-72
2022/10/09 05:39:47;;;;;;;8.00;3.60;;;;;;;-145.16;100.00;79624.66;643932;217;32345;-72
2022/10/09 05:46:05;;;;;;;0.00;0.00;;;;;;;-145.16;100.00;79612.56;643173;218;32575;-72
2022/10/09 05:52:22;;;;;;;0.00;0.00;;;;;;;-145.16;100.00;79606.52;649140;216;32348;-74
2022/10/09 05:58:40;;;;;;;0.00;0.00;;;;;;;-145.16;100.00;79595.44;653683;217;33346;-74
2022/10/09 06:05:00;;;;;;;0.00;0.00;;;;;;;-145.16;100.00;79568.24;645031;218;32378;-72
2022/10/09 06:11:19;;;;;;;0.00;0.00;;;;;;;-145.16;100.00;79544.06;645171;217;32379;-72
2022/10/09 06:17:37;;;;;;;0.00;0.00;;;;;;;-145.16;100.00;79401.02;645193;218;33620;-72
2022/10/09 06:23:55;;;;;;;0.00;0.00;;;;;;;-145.16;100.00;78986.04;645170;218;32379;-74
2022/10/09 06:30:14;;;;;;;0.10;0.10;;;;;;;-145.16;100.00;78840.00;640357;218;32590;-73
2022/10/09 06:36:32;;;;;;;0.03;0.03;;;;;;;-145.16;100.00;78607.35;645163;217;32367;-73
2022/10/09 06:42:50;;;;;;;0.60;0.60;;;;;;;-145.16;100.00;78684.90;645140;217;32435;-73
2022/10/09 06:49:09;;;;;;;0.10;0.10;;;;;;;-145.16;100.00;78438.17;653635;217;32368;-73
2022/10/09 06:55:27;;;;;;;0.20;0.20;;;;;;;-145.16;100.00;78289.13;645165;217;53787;-74
2022/10/09 07:01:45;;;;;;;0.30;0.30;;;;;;;-145.16;100.00;78244.83;653663;217;32382;-73
2022/10/09 07:08:03;;;;;;;0.10;0.10;;;;;;;-145.16;100.00;77994.09;645176;217;34318;-74
2022/10/09 07:14:22;;;;;;;0.50;0.50;;;;;;;-145.16;100.00;77928.64;645160;217;32396;-74
2022/10/09 07:20:40;;;;;;;0.30;0.30;;;;;;;-145.16;100.00;77872.27;645181;218;32370;-73
2022/10/09 07:26:59;;;;;;;0.30;0.30;;;;;;;-145.16;100.00;77667.88;645171;217;32375;-74
2022/10/09 07:33:17;;;;;;;0.85;0.85;;;;;;;-145.16;93.94;77719.22;645180;217;32416;-74
2022/10/09 07:39:35;;;;;;;9.30;1.27;;;;;;;-145.16;81.63;77416.19;645160;218;32673;-74
2022/10/09 07:45:53;;;;;;;0.20;0.20;;;;;;;-145.16;73.67;77331.62;645176;217;32374;-74
2022/10/09 07:52:12;;;;;;;0.30;0.30;;;;;;;-145.16;69.89;77197.73;650703;217;29352;-74
2022/10/09 07:58:30;;;;;;;0.40;0.40;;;;;;;-145.16;68.59;77203.77;645176;218;32392;-74
2022/10/09 08:04:50;;;;;;;0.68;0.60;;;;;;;-145.16;70.93;77311.48;645013;217;32387;-74
2022/10/09 08:11:08;;;;;;;6.90;1.35;;;;;;;-145.16;70.88;77419.20;645170;217;32384;-74
2022/10/09 08:17:26;;;;;;;2.80;0.90;;;;;;;-145.16;74.60;77473.56;653681;217;32391;-74
2022/10/09 08:23:45;;;;;;;0.50;0.50;;;;;;;-145.16;73.58;77389.00;645181;217;32396;-74
2022/10/09 08:30:03;;;;;;;0.70;0.70;;;;;;;-145.16;71.31;77432.29;643309;217;32397;-74
2022/10/09 08:36:20;;;;;;;0.57;0.57;;;;;;;-145.16;73.88;77464.50;645156;217;32366;-74
2022/10/09 08:42:39;;;;;;;0.75;0.75;;;;;;;-145.16;73.97;77509.81;645162;217;32377;-75
2022/10/09 08:48:57;;;;;;;0.50;0.50;;;;;;;-145.16;74.39;77549.08;636163;217;32795;-75
2022/10/09 08:55:17;;;;;;;0.80;0.80;;;;;;;-145.16;73.68;77489.67;645133;217;43104;-75
2022/10/09 09:01:35;;;;;;;0.50;0.50;;;;;;;-145.16;72.94;77402.09;645163;217;32371;-74
2022/10/09 09:07:57;;;;;;;0.73;0.73;;;;;;;-145.16;71.05;77488.67;645166;218;33295;-74
2022/10/09 09:14:18;;;;;;;0.60;0.60;;;;;;;-145.16;67.76;77300.41;645039;218;32413;-75
2022/10/09 09:20:37;;;;;;;3.50;1.35;;;;;;;-145.16;67.00;77398.06;645129;217;32424;-75
2022/10/09 09:26:55;;;;;;;1.65;1.20;;;;;;;-145.16;71.20;77411.15;645153;217;43313;-75
2022/10/09 09:33:14;;;;;;;2.35;2.00;;;;;;;-145.16;69.80;77416.19;644567;217;32416;-74
2022/10/09 09:39:33;;;;;;;4.72;2.72;;;;;;;-145.16;64.59;77359.80;643586;217;32353;-74
2022/10/09 09:45:52;;;;;;;0.45;0.45;;;;;;;-145.16;68.11;77317.52;645168;217;43079;-75
2022/10/09 09:52:11;;;;;;;1.10;1.10;;;;;;;-145.16;66.03;77364.84;645172;217;32376;-75
2022/10/09 09:58:36;;;;;;;1.17;1.17;;;;;;;-145.16;66.53;77149.41;645165;217;43075;-74
2022/10/09 10:04:55;;;;;;;3.92;1.12;;;;;;;-145.16;65.57;77408.13;645160;217;32369;-75
2022/10/09 10:11:12;;;;;;;0.90;0.90;;;;;;;-145.16;63.33;77290.34;653657;217;32366;-72
2022/10/09 10:17:30;;;;;;;0.70;0.70;;;;;;;-145.16;66.34;77431.28;635639;217;43283;-72
2022/10/09 10:23:55;;;;;;;0.82;0.82;;;;;;;-145.16;63.82;77291.35;653659;217;43479;-72
2022/10/09 10:30:13;;;;;;;0.60;0.60;;;;;;;-145.16;65.53;77331.62;645152;217;43184;-74
2022/10/09 10:36:32;;;;;;;0.88;0.88;;;;;;;-145.16;68.17;77379.94;645181;217;43079;-74
2022/10/09 10:42:50;;;;;;;2.12;1.23;;;;;;;-145.16;64.13;77525.92;653642;217;32476;-74
2022/10/09 10:49:13;;;;;;;2.45;0.88;;;;;;;-145.16;64.52;77536.99;645018;217;43353;-72
2022/10/09 10:55:34;;;;;;;1.37;1.30;;;;;;;-145.16;64.73;77550.08;635199;217;32606;-72
2022/10/09 11:01:53;;;;;;;3.60;1.30;;;;;;;-145.16;66.84;77541.02;625892;218;43206;-72
2022/10/09 11:08:10;;;;;;;0.95;0.77;;;;;;;-145.16;63.67;77400.08;644367;217;32401;-74
2022/10/09 11:14:29;;;;;;;0.80;0.70;;;;;;;-145.16;64.56;77364.84;653680;217;32369;-72
2022/10/09 11:20:48;;;;;;;0.85;0.85;;;;;;;-145.16;64.06;77480.61;653656;217;32377;-74
2022/10/09 11:27:12;;;;;;;6.12;1.25;;;;;;;-145.16;70.18;77669.89;653684;217;43083;-74
2022/10/09 11:33:31;;;;;;;2.90;1.15;;;;;;;-145.16;66.86;77596.39;645150;217;32387;-74
2022/10/09 11:39:49;;;;;;;1.25;1.05;;;;;;;-145.16;80.49;77858.16;634921;217;32532;-75
2022/10/09 11:46:08;;;;;;;1.05;0.98;;;;;;;-145.16;87.09;77982.02;645001;217;32445;-74
2022/10/09 11:52:26;;;;;;;1.98;1.77;;;;;;;-145.16;90.58;78024.30;645169;217;32383;-74
2022/10/09 11:58:44;;;;;;;0.80;0.70;;;;;;;-145.16;100.00;78061.56;653668;217;32430;-75
2022/10/09 12:05:04;;;;;;;1.60;0.45;;;;;;;-145.16;100.00;77990.06;653633;217;32411;-74
2022/10/09 12:11:23;;;;;;;0.40;0.40;;;;;;;-145.16;100.00;77959.86;645188;217;32319;-74
2022/10/09 12:17:41;;;;;;;1.17;0.60;;;;;;;-145.16;100.00;77944.76;653688;217;32389;-74
2022/10/09 12:24:00;;;;;;;2.15;1.75;;;;;;;-145.16;100.00;77987.05;645166;217;32356;-74
2022/10/09 12:30:19;;;;;;;0.55;0.55;;;;;;;-145.16;100.00;77897.44;644227;217;32350;-75
2022/10/09 12:36:37;;;;;;;0.13;0.13;;;;;;;-145.16;96.22;77871.25;645123;217;32364;-74
2022/10/09 12:42:55;;;;;;;0.50;0.50;;;;;;;-145.16;92.69;77840.05;653142;217;32338;-73
2022/10/09 12:49:14;;;;;;;0.40;0.40;;;;;;;-145.16;91.79;77825.95;639506;218;32226;-73
2022/10/09 12:55:31;;;;;;;0.95;0.73;;;;;;;-145.16;85.31;77800.77;645109;218;32372;-73
2022/10/09 13:01:50;;;;;;;0.20;0.20;;;;;;;-145.16;90.71;77785.67;648926;217;32330;-75
2022/10/09 13:08:09;;;;;;;0.32;0.32;;;;;;;-145.16;86.86;77775.61;643207;217;32338;-74
2022/10/09 13:14:26;;;;;;;0.35;0.25;;;;;;;-145.16;84.76;77771.58;645321;217;32433;-73
2022/10/09 13:20:44;;;;;;;0.32;0.32;;;;;;;-145.16;84.64;77722.24;634261;217;32648;-73
2022/10/09 13:27:04;;;;;;;0.20;0.20;;;;;;;-145.16;86.18;77698.08;653628;218;32379;-74
2022/10/09 13:33:23;;;;;;;0.60;0.43;;;;;;;-145.16;83.77;77690.02;633272;217;32484;-73
2022/10/09 13:39:41;;;;;;;0.77;0.77;;;;;;;-145.16;87.06;77725.27;645174;217;32409;-73
2022/10/09 13:46:00;;;;;;;6.10;0.70;;;;;;;-145.16;87.61;77752.45;645148;217;32367;-74
2022/10/09 13:52:18;;;;;;;2.58;1.10;;;;;;;-145.16;86.93;77761.51;641478;218;32351;-74
2022/10/09 13:58:36;;;;;;;0.30;0.30;;;;;;;-145.16;89.24;77778.63;645100;217;32407;-74
2022/10/09 14:04:53;;;;;;;0.60;0.60;;;;;;;-145.16;90.19;77820.91;638394;218;32514;-74
2022/10/09 14:11:11;;;;;;;1.10;0.70;;;;;;;-145.16;93.86;77865.22;643032;217;32361;-74
2022/10/09 14:17:30;;;;;;;0.52;0.52;;;;;;;-145.16;94.34;77853.13;644237;217;32369;-73
2022/10/09 14:23:48;;;;;;;2.30;1.30;;;;;;;-145.16;96.18;77865.22;647017;217;32377;-74
2022/10/09 14:30:06;;;;;;;0.80;0.50;;;;;;;-145.16;96.17;77817.89;645172;217;32396;-75
2022/10/09 14:36:26;;;;;;;1.60;0.98;;;;;;;-145.16;96.56;77835.01;653637;217;32363;-74
2022/10/09 14:42:44;;;;;;;0.50;0.50;;;;;;;-145.16;92.57;77835.01;653638;217;32381;-73
2022/10/09 14:49:06;;;;;;;0.65;0.43;;;;;;;-145.16;90.33;77844.07;653671;218;43079;-73
2022/10/09 14:55:20;;;;;;;0.57;0.52;;;;;;;-145.16;90.06;77803.80;645180;217;32361;-73
2022/10/09 15:01:39;;;;;;;0.20;0.20;;;;;;;-145.16;93.61;77791.72;645165;217;32356;-73
2022/10/09 15:07:57;;;;;;;1.30;1.08;;;;;;;-145.16;93.38;77835.01;645150;217;32393;-73
2022/10/09 15:14:15;;;;;;;0.75;0.75;;;;;;;-145.16;94.46;77847.09;645175;217;32378;-74
2022/10/09 15:20:33;;;;;;;1.60;0.50;;;;;;;-145.16;95.85;77852.13;645164;217;32647;-74
2022/10/09 15:26:51;;;;;;;0.60;0.60;;;;;;;-145.16;99.61;77881.33;653692;217;32385;-73
2022/10/09 15:33:09;;;;;;;0.70;0.50;;;;;;;-145.16;100.00;77878.30;645171;217;32441;-73
2022/10/09 15:39:27;;;;;;;3.60;0.60;;;;;;;-145.16;100.00;77901.46;653679;218;32417;-73
2022/10/09 15:45:48;;;;;;;0.20;0.20;;;;;;;-145.16;100.00;77885.35;645046;217;32434;-73
2022/10/09 15:52:06;;;;;;;0.70;0.70;;;;;;;-145.16;100.00;77873.27;645162;218;32360;-73
2022/10/09 15:58:24;;;;;;;0.52;0.52;;;;;;;-145.16;100.00;77861.19;653697;217;32371;-73
2022/10/09 16:04:42;;;;;;;2.35;1.20;;;;;;;-145.16;100.00;77895.42;645183;218;32404;-73
2022/10/09 16:11:01;;;;;;;0.50;0.50;;;;;;;-145.16;100.00;77889.38;645194;218;32348;-73
2022/10/09 16:17:20;;;;;;;0.50;0.50;;;;;;;-145.16;100.00;77895.42;653708;217;32408;-73
2022/10/09 16:23:38;;;;;;;0.30;0.30;;;;;;;-145.16;100.00;77915.56;645245;217;38927;-73
2022/10/09 16:29:56;;;;;;;0.40;0.40;;;;;;;-145.16;100.00;77923.61;653682;217;32357;-73
2022/10/09 16:36:14;;;;;;;10.57;0.90;;;;;;;-145.16;100.00;77935.70;645179;217;32370;-72
2022/10/09 16:42:33;;;;;;;0.30;0.30;;;;;;;-145.16;100.00;77943.75;645184;217;32393;-72
2022/10/09 16:48:51;;;;;;;0.10;0.10;;;;;;;-145.16;100.00;77970.94;645169;217;32758;-72
2022/10/09 16:55:09;;;;;;;0.40;0.40;;;;;;;-145.16;100.00;77988.05;645178;217;32359;-73
2022/10/09 17:01:28;;;;;;;0.10;0.10;;;;;;;-145.16;100.00;78020.27;645205;217;32373;-73
2022/10/09 17:07:46;;;;;;;2.40;0.40;;;;;;;-145.16;100.00;78060.55;653702;217;32438;-73
2022/10/09 17:14:04;;;;;;;0.10;0.10;;;;;;;-145.16;100.00;78094.79;640140;217;33545;-73
2022/10/09 17:20:22;;;;;;;0.10;0.10;;;;;;;-145.16;100.00;78127.01;645157;217;33356;-73
2022/10/09 17:26:41;;;;;;;0.10;0.10;;;;;;;-145.16;100.00;78146.14;653665;217;32393;-72
2022/10/09 17:33:02;;;;;;;0.00;0.00;;;;;;;-145.16;100.00;78180.38;645020;217;32380;-72
2022/10/09 17:39:21;;;;;;;0.65;0.65;;;;;;;-145.16;100.00;78198.50;645136;217;33046;-72
2022/10/09 17:45:40;;;;;;;0.00;0.00;;;;;;;-145.16;100.00;78215.63;653650;217;32362;-72
2022/10/09 17:51:59;;;;;;;0.10;0.10;;;;;;;-145.16;100.00;78241.80;645031;217;32377;-72
2022/10/09 17:58:20;;;;;;;0.05;0.05;;;;;;;-145.16;100.00;78266.98;645052;217;32297;-72
2022/10/09 18:04:39;;;;;;;0.20;0.20;;;;;;;-145.16;100.00;78285.10;641422;217;34898;-72
2022/10/09 18:10:59;;;;;;;0.00;0.00;;;;;;;-145.16;100.00;78299.20;653651;217;32413;-72
2022/10/09 18:17:17;;;;;;;0.30;0.30;;;;;;;-145.16;100.00;78323.37;653718;218;32375;-72
2022/10/09 18:23:35;;;;;;;0.10;0.10;;;;;;;-145.16;100.00;78316.32;645175;217;32416;-72
2022/10/09 18:29:53;;;;;;;0.30;0.30;;;;;;;-145.16;100.00;78328.41;645175;217;33353;-72
2022/10/09 18:36:12;;;;;;;0.10;0.10;;;;;;;-145.16;100.00;78338.47;645192;217;33354;-71
2022/10/09 18:42:30;;;;;;;1.30;0.27;;;;;;;-145.16;100.00;78346.53;645202;218;32378;-72
2022/10/09 18:48:51;;;;;;;0.00;0.00;;;;;;;-145.16;100.00;78352.57;653650;217;32331;-72
2022/10/09 18:55:09;;;;;;;0.10;0.10;;;;;;;-145.16;100.00;78364.66;645164;217;32360;-72
2022/10/09 19:01:28;;;;;;;0.10;0.10;;;;;;;-145.16;100.00;78380.77;645184;217;33345;-72
2022/10/09 19:07:46;;;;;;;0.10;0.10;;;;;;;-145.16;100.00;78369.69;645287;217;33590;-72
2022/10/09 19:14:04;;;;;;;0.20;0.20;;;;;;;-145.16;100.00;78351.56;653695;217;34379;-72
2022/10/09 19:20:22;;;;;;;0.32;0.32;;;;;;;-145.16;100.00;78347.53;645186;217;43392;-72
2022/10/09 19:26:40;;;;;;;0.40;0.40;;;;;;;-145.16;100.00;78353.58;645185;217;32360;-72
2022/10/09 19:32:58;;;;;;;0.60;0.60;;;;;;;-145.16;100.00;78320.34;643009;217;34489;-72
2022/10/09 19:39:19;;;;;;;1.00;0.43;;;;;;;-145.16;100.00;78344.52;645078;217;35320;-72
2022/10/09 19:45:37;;;;;;;0.47;0.47;;;;;;;-145.16;100.00;78346.53;639796;217;33644;-72
2022/10/09 19:51:55;;;;;;;0.40;0.40;;;;;;;-145.16;100.00;78372.71;637459;217;32237;-72
2022/10/09 19:58:16;;;;;;;0.20;0.20;;;;;;;-145.16;100.00;78389.83;653733;218;35292;-72
2022/10/09 20:04:34;;;;;;;0.47;0.47;;;;;;;-145.16;100.00;78398.89;641273;218;32530;-72
2022/10/09 20:10:52;;;;;;;0.30;0.30;;;;;;;-145.16;100.00;78401.91;653753;217;34313;-72
2022/10/09 20:17:10;;;;;;;0.10;0.10;;;;;;;-145.16;100.00;78406.95;653696;218;32383;-72
2022/10/09 20:23:28;;;;;;;0.90;0.40;;;;;;;-145.16;100.00;78416.02;645190;217;32668;-72
2022/10/09 20:29:47;;;;;;;0.40;0.40;;;;;;;-145.16;100.00;78403.93;645190;217;33358;-72
2022/10/09 20:36:05;;;;;;;0.50;0.50;;;;;;;-145.16;100.00;78412.99;645290;218;33035;-72
2022/10/09 20:42:24;;;;;;;0.43;0.43;;;;;;;-145.16;100.00;78402.92;650718;217;29323;-72
2022/10/09 20:48:42;;;;;;;0.87;0.87;;;;;;;-145.16;100.00;78414.00;645235;218;34333;-72
2022/10/09 20:55:01;;;;;;;0.40;0.40;;;;;;;-145.16;100.00;78411.98;645178;218;32374;-72
2022/10/09 20:58:04;;;;;;;0.10;0.10;;;;;;;;;;635231;226;22683;-71
2022/10/09 21:03:45;;;;;;;0.70;0.70;;;;;;;-145.16;100.00;78405.94;645197;218;32364;-72
2022/10/09 21:10:04;;;;;;;0.50;0.50;;;;;;;-145.16;100.00;78415.01;645185;217;32649;-72
2022/10/09 21:16:24;;;;;;;0.20;0.20;;;;;;;-145.16;100.00;78426.08;645080;217;32402;-72
2022/10/09 21:22:42;;;;;;;0.70;0.20;;;;;;;-145.16;100.00;78429.10;645189;218;32370;-72
2022/10/09 21:29:02;;;;;;;0.10;0.10;;;;;;;-145.16;100.00;78431.12;645024;217;32374;-72
2022/10/09 21:35:21;;;;;;;0.00;0.00;;;;;;;-145.16;100.00;78450.25;645195;217;32635;-72
2022/10/09 21:41:39;;;;;;;0.68;0.68;;;;;;;-145.16;100.00;78449.24;653767;217;33157;-71
2022/10/09 21:47:58;;;;;;;0.60;0.60;;;;;;;-145.16;100.00;78449.24;645187;217;33374;-72
2022/10/09 21:54:16;;;;;;;0.70;0.67;;;;;;;-145.16;100.00;78449.24;645171;217;34586;-72
2022/10/09 22:00:35;;;;;;;0.20;0.20;;;;;;;-145.16;100.00;78447.23;653691;217;33347;-72
2022/10/09 22:06:53;;;;;;;0.20;0.20;;;;;;;-145.16;100.00;78452.27;645189;217;32386;-71
2022/10/09 22:13:13;;;;;;;0.37;0.37;;;;;;;-145.16;100.00;78462.34;645087;217;35292;-72
2022/10/09 22:19:31;;;;;;;1.90;1.37;;;;;;;-145.16;100.00;78460.32;645189;217;34316;-72
2022/10/09 22:25:50;;;;;;;0.50;0.50;;;;;;;-145.16;100.00;78467.38;653695;217;32441;-72
2022/10/09 22:32:09;;;;;;;0.23;0.23;;;;;;;-145.16;100.00;78463.34;653707;218;33364;-72
2022/10/09 22:38:26;;;;;;;0.97;0.97;;;;;;;-145.16;100.00;78467.38;645156;217;34330;-72
2022/10/09 22:44:45;;;;;;;1.00;0.80;;;;;;;-145.16;100.00;78428.09;645188;217;34314;-72
2022/10/09 22:51:03;;;;;;;0.40;0.40;;;;;;;-145.16;100.00;78431.12;645178;218;33337;-71
2022/10/09 22:57:24;;;;;;;0.77;0.47;;;;;;;-145.16;100.00;78446.22;645023;218;34379;-72
2022/10/09 23:03:44;;;;;;;0.43;0.43;;;;;;;-145.16;100.00;78464.34;645072;217;33352;-72
2022/10/09 23:10:04;;;;;;;0.70;0.30;;;;;;;-145.16;100.00;78446.22;645032;217;32408;-72
2022/10/09 23:16:24;;;;;;;2.53;0.93;;;;;;;-145.16;100.00;78456.30;653651;217;32651;-71
2022/10/09 23:22:42;;;;;;;0.20;0.10;;;;;;;-145.16;100.00;78452.27;653680;217;34337;-72
2022/10/09 23:29:00;;;;;;;0.13;0.13;;;;;;;-145.16;100.00;78453.27;645168;218;32382;-72
2022/10/09 23:35:20;;;;;;;0.60;0.60;;;;;;;-145.16;100.00;78448.23;645048;217;33367;-72
2022/10/09 23:41:38;;;;;;;0.40;0.40;;;;;;;-145.16;100.00;78449.24;645182;217;33285;-72
2022/10/09 23:47:57;;;;;;;0.37;0.37;;;;;;;-145.16;100.00;78465.36;645188;217;33343;-72
2022/10/09 23:54:17;;;;;;;0.10;0.10;;;;;;;-145.16;100.00;78457.30;645061;217;32384;-72
